Time;durP1;ratioP1;P1;durP2;ratioP2;P2;SDS_P1;SDS_P2;PMS_P1;PMS_P2;Temp;Humidity;BMP_temperature;BMP_pressure;BME280_temperature;BME280_humidity;BME280_pressure;Samples;Min_cycle;Max_cycle;Signal;HPM_P1;HPM_P2
2023/12/27 00:01:31;;;;;;;6.78;1.92;;;8.50;99.90;;;;;;4957598;28;20038;-76
2023/12/27 00:03:56;;;;;;;5.30;1.90;;;8.60;99.90;;;;;;4957903;28;20035;-76
2023/12/27 00:06:22;;;;;;;4.50;1.50;;;8.60;99.90;;;;;;4973574;28;20031;-76
2023/12/27 00:08:47;;;;;;;8.32;1.80;;;8.60;99.90;;;;;;4975478;28;20041;-75
2023/12/27 00:11:17;;;;;;;5.63;1.70;;;8.60;99.90;;;;;;4957829;28;20115;-75
2023/12/27 00:13:43;;;;;;;6.65;1.70;;;8.50;99.90;;;;;;4958005;28;20026;-75
2023/12/27 00:16:09;;;;;;;5.35;2.28;;;8.50;99.90;;;;;;4957700;28;20078;-76
2023/12/27 00:18:35;;;;;;;4.15;1.77;;;8.50;99.90;;;;;;4957230;28;20030;-76
2023/12/27 00:21:00;;;;;;;5.18;1.50;;;8.50;99.90;;;;;;4974957;28;20023;-76
2023/12/27 00:23:27;;;;;;;6.80;1.67;;;8.50;99.90;;;;;;4973181;28;20037;-76
2023/12/27 00:25:53;;;;;;;5.95;1.50;;;8.50;99.90;;;;;;4957731;28;20031;-76
2023/12/27 00:28:19;;;;;;;6.72;1.90;;;8.50;99.90;;;;;;4956997;28;20045;-79
2023/12/27 00:30:48;;;;;;;4.20;1.50;;;8.60;99.90;;;;;;4957556;28;20357;-76
2023/12/27 00:33:15;;;;;;;5.95;1.63;;;8.60;99.90;;;;;;4974697;28;20019;-76
2023/12/27 00:35:40;;;;;;;9.23;1.40;;;8.50;99.90;;;;;;4973873;28;20062;-76
2023/12/27 00:38:06;;;;;;;5.20;1.70;;;8.50;99.90;;;;;;4954040;29;20145;-76
2023/12/27 00:40:32;;;;;;;5.40;1.65;;;8.50;99.90;;;;;;4953662;28;20031;-76
2023/12/27 00:42:57;;;;;;;6.97;1.63;;;8.60;99.90;;;;;;4954078;29;20031;-76
2023/12/27 00:45:23;;;;;;;8.20;1.60;;;8.50;99.90;;;;;;4954790;28;20037;-76
2023/12/27 00:47:48;;;;;;;4.38;1.77;;;8.60;99.90;;;;;;4954035;28;20038;-75
2023/12/27 00:50:14;;;;;;;6.18;1.65;;;8.50;99.90;;;;;;4954008;28;20028;-75
2023/12/27 00:52:40;;;;;;;4.68;1.98;;;8.50;99.90;;;;;;4953447;28;20370;-76
2023/12/27 00:55:06;;;;;;;5.25;1.48;;;8.50;99.90;;;;;;4955012;28;20066;-75
2023/12/27 00:57:31;;;;;;;5.97;1.65;;;8.60;99.90;;;;;;4953179;28;20050;-76
2023/12/27 00:59:57;;;;;;;6.05;1.38;;;8.50;99.90;;;;;;4953472;28;20035;-76
2023/12/27 01:02:22;;;;;;;3.53;1.45;;;8.50;99.90;;;;;;4953294;28;20162;-76
2023/12/27 01:04:48;;;;;;;4.97;1.55;;;8.50;99.90;;;;;;4954026;28;20036;-76
2023/12/27 01:07:13;;;;;;;5.82;1.52;;;8.50;99.90;;;;;;4953729;28;20461;-75
2023/12/27 01:09:39;;;;;;;8.35;1.90;;;8.50;99.90;;;;;;4953303;28;20027;-76
2023/12/27 01:12:05;;;;;;;4.50;1.80;;;8.50;99.90;;;;;;4953611;29;20492;-75
2023/12/27 01:14:30;;;;;;;5.20;1.80;;;8.40;99.90;;;;;;4953123;29;20035;-76
2023/12/27 01:16:56;;;;;;;6.53;1.67;;;8.40;99.90;;;;;;4954802;28;20027;-75
2023/12/27 01:19:21;;;;;;;8.40;1.85;;;8.40;99.90;;;;;;4953154;29;20031;-80
2023/12/27 01:21:47;;;;;;;6.55;1.70;;;8.40;99.90;;;;;;4954815;28;20150;-75
2023/12/27 01:24:12;;;;;;;2.67;1.60;;;8.40;99.90;;;;;;4954821;28;20457;-76
2023/12/27 01:26:38;;;;;;;6.38;1.63;;;8.40;99.90;;;;;;4952796;28;20117;-76
2023/12/27 01:29:04;;;;;;;6.38;1.67;;;8.30;99.90;;;;;;4954751;28;20064;-76
2023/12/27 01:31:29;;;;;;;4.47;1.85;;;8.40;99.90;;;;;;4952986;29;20473;-76
2023/12/27 01:33:55;;;;;;;7.68;2.20;;;8.30;99.90;;;;;;4954331;28;20086;-76
2023/12/27 01:36:21;;;;;;;6.68;1.75;;;8.40;99.90;;;;;;4956385;28;20038;-76
2023/12/27 01:38:46;;;;;;;7.68;2.45;;;8.40;99.90;;;;;;4973810;28;20448;-76
2023/12/27 01:41:12;;;;;;;5.63;1.75;;;8.40;99.90;;;;;;4956676;28;20113;-75
2023/12/27 01:43:37;;;;;;;7.03;2.17;;;8.40;99.90;;;;;;4955955;28;20041;-75
2023/12/27 01:46:03;;;;;;;5.75;1.65;;;8.40;99.90;;;;;;4973764;28;20110;-76
2023/12/27 01:48:30;;;;;;;7.10;1.60;;;8.40;99.90;;;;;;4972172;28;20033;-76
2023/12/27 01:50:58;;;;;;;4.05;1.83;;;8.40;99.90;;;;;;4972627;28;20030;-75
2023/12/27 01:53:24;;;;;;;5.72;1.83;;;8.40;99.90;;;;;;4956044;28;20030;-87
2023/12/27 01:55:51;;;;;;;4.50;1.73;;;8.50;99.90;;;;;;4956424;28;20035;-76
2023/12/27 01:58:17;;;;;;;9.82;1.90;;;8.40;99.90;;;;;;4956297;28;20035;-75
2023/12/27 02:00:45;;;;;;;8.27;1.80;;;8.40;99.90;;;;;;4972057;28;20634;-76
2023/12/27 02:03:13;;;;;;;4.65;1.80;;;8.50;99.90;;;;;;4956500;28;20042;-75
2023/12/27 02:05:40;;;;;;;5.32;1.98;;;8.40;99.90;;;;;;4955917;28;20041;-76
2023/12/27 02:08:07;;;;;;;4.18;1.98;;;8.50;99.90;;;;;;4974842;28;20082;-76
2023/12/27 02:10:33;;;;;;;4.55;1.90;;;8.50;99.90;;;;;;4977168;28;20422;-76
2023/12/27 02:13:06;;;;;;;7.13;2.10;;;8.50;99.90;;;;;;4959933;28;20031;-76
2023/12/27 02:15:32;;;;;;;4.63;1.75;;;8.50;99.90;;;;;;4959395;28;20042;-76
2023/12/27 02:17:59;;;;;;;4.57;1.77;;;8.50;99.90;;;;;;4977162;28;20031;-75
2023/12/27 02:20:26;;;;;;;7.53;2.25;;;8.60;99.90;;;;;;4959363;28;20027;-89
2023/12/27 02:22:54;;;;;;;6.50;1.85;;;8.50;99.90;;;;;;4960064;28;20051;-76
2023/12/27 02:25:20;;;;;;;5.43;1.55;;;8.50;99.90;;;;;;4977169;28;20158;-76
2023/12/27 02:27:46;;;;;;;6.78;1.95;;;8.60;99.90;;;;;;4976447;28;20110;-76
2023/12/27 02:30:18;;;;;;;4.97;1.60;;;8.50;99.90;;;;;;4959677;28;20130;-75
2023/12/27 02:32:45;;;;;;;6.38;1.67;;;8.50;99.90;;;;;;4975075;28;20035;-76
2023/12/27 02:35:11;;;;;;;9.20;1.83;;;8.50;99.90;;;;;;4977150;28;20039;-75
2023/12/27 02:37:36;;;;;;;5.03;1.88;;;8.50;99.90;;;;;;4976367;28;20500;-76
2023/12/27 02:40:03;;;;;;;7.82;1.90;;;8.60;99.90;;;;;;4976799;28;20043;-75
2023/12/27 02:42:31;;;;;;;6.68;1.73;;;8.50;99.90;;;;;;4958997;28;20031;-76
2023/12/27 02:44:57;;;;;;;6.75;1.90;;;8.60;99.90;;;;;;4959329;28;20388;-75
2023/12/27 02:47:22;;;;;;;6.47;1.63;;;8.60;99.90;;;;;;4976726;28;20027;-75
2023/12/27 02:49:48;;;;;;;6.60;2.03;;;8.60;99.90;;;;;;4958821;28;20100;-75
2023/12/27 02:52:14;;;;;;;8.30;1.98;;;8.50;99.90;;;;;;4976528;28;20031;-76
2023/12/27 02:54:39;;;;;;;9.30;2.47;;;8.60;99.90;;;;;;4974783;28;20147;-75
2023/12/27 02:57:05;;;;;;;3.58;1.83;;;8.60;99.90;;;;;;4959506;28;20153;-76
2023/12/27 02:59:30;;;;;;;7.28;2.22;;;8.60;99.90;;;;;;4976199;28;20380;-76
2023/12/27 03:01:56;;;;;;;5.95;2.33;;;8.60;99.90;;;;;;4975170;28;20045;-76
2023/12/27 03:04:22;;;;;;;6.50;2.17;;;8.60;99.90;;;;;;4976431;28;20053;-75
2023/12/27 03:06:47;;;;;;;7.07;2.08;;;8.60;99.90;;;;;;4958712;28;20030;-76
2023/12/27 03:09:13;;;;;;;7.50;1.70;;;8.60;99.90;;;;;;4958939;28;20024;-75
2023/12/27 03:11:38;;;;;;;5.22;1.40;;;8.60;99.90;;;;;;4975509;28;20026;-76
2023/12/27 03:14:04;;;;;;;3.97;1.48;;;8.60;99.90;;;;;;4959118;28;20029;-75
2023/12/27 03:16:30;;;;;;;7.43;1.60;;;8.60;99.90;;;;;;4958299;28;20053;-76
2023/12/27 03:18:56;;;;;;;8.85;1.90;;;8.60;99.90;;;;;;4958071;28;20069;-76
2023/12/27 03:21:22;;;;;;;6.38;1.80;;;8.60;99.90;;;;;;4974337;28;20081;-76
2023/12/27 03:23:48;;;;;;;10.73;1.80;;;8.60;99.90;;;;;;4975566;28;20304;-75
2023/12/27 03:26:13;;;;;;;2.90;1.33;;;8.60;99.90;;;;;;4958613;28;20034;-75
2023/12/27 03:28:39;;;;;;;11.68;2.00;;;8.60;99.90;;;;;;4958165;28;20035;-76
2023/12/27 03:31:05;;;;;;;7.75;1.75;;;8.60;99.90;;;;;;4975878;28;20031;-76
2023/12/27 03:33:30;;;;;;;5.97;1.85;;;8.60;99.90;;;;;;4958232;28;20118;-76
2023/12/27 03:35:56;;;;;;;5.43;1.63;;;8.60;99.90;;;;;;4958441;28;20034;-75
2023/12/27 03:38:21;;;;;;;5.88;1.63;;;8.60;99.90;;;;;;4958248;28;20090;-76
2023/12/27 03:40:47;;;;;;;5.78;1.38;;;8.60;99.90;;;;;;4975407;28;20034;-76
2023/12/27 03:43:12;;;;;;;3.75;1.55;;;8.60;99.90;;;;;;4975486;28;20105;-77
2023/12/27 03:45:38;;;;;;;7.72;1.70;;;8.60;99.90;;;;;;4957882;28;20039;-76
2023/12/27 03:48:04;;;;;;;4.85;1.75;;;8.60;99.90;;;;;;4975567;28;20115;-76
2023/12/27 03:50:30;;;;;;;3.97;1.40;;;8.60;99.90;;;;;;4975337;28;20035;-86
2023/12/27 03:52:56;;;;;;;5.75;1.50;;;8.60;99.90;;;;;;4974588;28;20078;-76
2023/12/27 03:55:24;;;;;;;8.63;1.67;;;8.60;99.90;;;;;;4958055;28;20394;-76
2023/12/27 03:57:50;;;;;;;7.28;1.63;;;8.60;99.90;;;;;;4957468;28;20553;-76
2023/12/27 04:00:16;;;;;;;8.85;1.83;;;8.60;99.90;;;;;;4975564;28;20035;-76
2023/12/27 04:02:41;;;;;;;7.85;1.70;;;8.60;99.90;;;;;;4973767;28;20038;-76
2023/12/27 04:05:08;;;;;;;7.05;1.65;;;8.50;99.90;;;;;;4975322;28;20109;-76
2023/12/27 04:07:34;;;;;;;5.20;1.80;;;8.60;99.90;;;;;;4957659;28;20433;-76
2023/12/27 04:09:59;;;;;;;2.78;1.70;;;8.60;99.90;;;;;;4957955;28;20039;-76
2023/12/27 04:12:25;;;;;;;5.80;1.70;;;8.60;99.90;;;;;;4957801;28;20056;-76
2023/12/27 04:14:50;;;;;;;3.85;1.80;;;8.60;99.90;;;;;;4957328;28;20508;-76
2023/12/27 04:17:16;;;;;;;3.55;1.58;;;8.50;99.90;;;;;;4958020;28;20050;-75
2023/12/27 04:19:41;;;;;;;9.02;2.35;;;8.50;99.90;;;;;;4956835;28;20027;-76
2023/12/27 04:22:08;;;;;;;8.27;1.85;;;8.50;99.90;;;;;;4974945;28;20037;-76
2023/12/27 04:24:33;;;;;;;6.38;1.63;;;8.50;99.90;;;;;;4957222;28;20562;-73
2023/12/27 04:26:59;;;;;;;5.00;1.48;;;8.50;99.90;;;;;;4957368;28;20123;-74
2023/12/27 04:29:25;;;;;;;4.30;1.65;;;8.50;99.90;;;;;;4957441;28;20030;-74
2023/12/27 04:31:50;;;;;;;6.47;1.50;;;8.50;99.90;;;;;;4974046;28;20456;-76
2023/12/27 04:34:16;;;;;;;6.72;1.88;;;8.60;99.90;;;;;;4973549;28;20085;-75
2023/12/27 04:36:42;;;;;;;6.75;1.70;;;8.60;99.90;;;;;;4973951;28;20058;-76
2023/12/27 04:39:07;;;;;;;3.65;1.77;;;8.50;99.90;;;;;;4957611;28;20452;-76
2023/12/27 04:41:33;;;;;;;6.25;1.60;;;8.60;99.90;;;;;;4974230;28;20448;-88
2023/12/27 04:43:59;;;;;;;5.75;1.70;;;8.60;99.90;;;;;;4956987;28;20362;-76
2023/12/27 04:46:25;;;;;;;5.72;1.67;;;8.60;99.90;;;;;;4957271;28;20038;-75
2023/12/27 04:48:50;;;;;;;6.70;1.75;;;8.50;99.90;;;;;;4956745;28;20027;-76
2023/12/27 04:51:16;;;;;;;4.82;1.55;;;8.50;99.90;;;;;;4957208;28;20050;-76
2023/12/27 04:53:43;;;;;;;5.20;1.65;;;8.50;99.90;;;;;;4956710;28;20027;-76
2023/12/27 04:56:08;;;;;;;4.03;1.45;;;8.50;99.90;;;;;;4957194;28;20058;-76
2023/12/27 04:58:35;;;;;;;5.20;1.75;;;8.40;99.90;;;;;;4974161;28;20031;-91
2023/12/27 05:01:06;;;;;;;5.25;1.58;;;8.30;99.90;;;;;;4973323;28;20102;-76
2023/12/27 05:03:35;;;;;;;3.17;1.70;;;8.30;99.90;;;;;;4957028;28;20169;-76
2023/12/27 05:06:01;;;;;;;7.68;1.90;;;8.30;99.90;;;;;;4956928;28;20035;-76
2023/12/27 05:08:27;;;;;;;8.25;2.10;;;8.30;99.90;;;;;;4974226;28;20026;-75
2023/12/27 05:10:53;;;;;;;4.63;2.10;;;8.30;99.90;;;;;;4972559;28;20173;-76
2023/12/27 05:13:19;;;;;;;5.10;2.40;;;8.30;99.90;;;;;;4973209;28;20049;-76
2023/12/27 05:15:45;;;;;;;6.68;3.03;;;8.40;99.90;;;;;;4972395;28;20035;-76
2023/12/27 05:18:11;;;;;;;14.20;3.90;;;8.40;99.90;;;;;;4974179;28;20023;-75
2023/12/27 05:20:36;;;;;;;7.05;3.60;;;8.40;99.90;;;;;;4973424;28;20033;-76
2023/12/27 05:23:02;;;;;;;6.55;2.13;;;8.40;99.90;;;;;;4956857;28;20038;-75
2023/12/27 05:25:28;;;;;;;10.45;2.10;;;8.40;99.90;;;;;;4973019;28;20053;-76
2023/12/27 05:27:53;;;;;;;7.43;1.98;;;8.40;99.90;;;;;;4956189;28;20486;-75
2023/12/27 05:30:19;;;;;;;5.00;1.77;;;8.40;99.90;;;;;;4973989;28;20038;-76
2023/12/27 05:32:44;;;;;;;4.45;1.80;;;8.40;99.90;;;;;;4956254;28;20027;-76
2023/12/27 05:35:10;;;;;;;5.55;2.03;;;8.30;99.90;;;;;;4956469;28;20101;-76
2023/12/27 05:37:36;;;;;;;3.88;1.67;;;8.30;99.90;;;;;;4973800;28;20055;-87
2023/12/27 05:40:03;;;;;;;3.50;2.22;;;8.20;99.90;;;;;;4956649;28;20065;-76
2023/12/27 05:42:29;;;;;;;3.88;1.75;;;8.10;99.90;;;;;;4974211;28;20150;-76
2023/12/27 05:44:54;;;;;;;4.00;1.80;;;8.10;99.90;;;;;;4977485;28;20113;-76
2023/12/27 05:47:20;;;;;;;2.35;1.52;;;8.00;99.90;;;;;;4960405;28;20031;-76
2023/12/27 05:49:45;;;;;;;3.95;1.60;;;7.90;99.90;;;;;;4976110;28;20027;-76
2023/12/27 05:52:11;;;;;;;6.57;1.90;;;7.90;99.90;;;;;;4960414;28;20113;-76
2023/12/27 05:54:37;;;;;;;5.85;1.75;;;7.80;99.90;;;;;;4977813;28;20035;-75
2023/12/27 05:57:03;;;;;;;3.22;1.90;;;7.80;99.90;;;;;;4977590;28;20023;-76
2023/12/27 05:59:29;;;;;;;4.03;1.60;;;7.80;99.90;;;;;;4959842;28;20511;-76
2023/12/27 06:01:54;;;;;;;5.70;2.10;;;7.80;99.90;;;;;;4959769;28;20035;-76
2023/12/27 06:04:21;;;;;;;3.80;1.77;;;7.70;99.90;;;;;;4960218;28;20081;-76
2023/12/27 06:06:49;;;;;;;3.30;1.60;;;7.70;99.90;;;;;;4976998;28;20027;-76
2023/12/27 06:09:16;;;;;;;3.60;1.52;;;7.70;99.90;;;;;;4977375;28;20031;-76
2023/12/27 06:11:41;;;;;;;4.30;1.50;;;7.70;99.90;;;;;;4975505;28;20480;-76
2023/12/27 06:14:07;;;;;;;4.60;1.70;;;7.70;99.90;;;;;;4960020;28;20050;-76
2023/12/27 06:16:32;;;;;;;4.72;1.48;;;7.70;99.90;;;;;;4959946;28;20033;-76
2023/12/27 06:19:00;;;;;;;3.63;1.60;;;7.60;99.90;;;;;;4976841;28;20285;-76
2023/12/27 06:21:26;;;;;;;4.95;1.65;;;7.70;99.90;;;;;;4976174;28;20027;-76
2023/12/27 06:23:51;;;;;;;3.13;1.58;;;7.60;99.90;;;;;;4959328;28;20034;-75
2023/12/27 06:26:17;;;;;;;7.35;1.60;;;7.60;99.90;;;;;;4959928;28;20034;-76
2023/12/27 06:28:44;;;;;;;4.55;1.45;;;7.60;99.90;;;;;;4976279;28;20124;-76
2023/12/27 06:31:09;;;;;;;4.60;1.90;;;7.60;99.90;;;;;;4959674;28;20069;-75
2023/12/27 06:33:35;;;;;;;3.60;1.63;;;7.50;99.90;;;;;;4959651;28;20468;-76
2023/12/27 06:36:01;;;;;;;5.85;1.50;;;7.50;99.90;;;;;;4976182;28;20038;-76
2023/12/27 06:38:28;;;;;;;4.45;2.30;;;7.50;99.90;;;;;;4975643;28;20034;-75
2023/12/27 06:40:54;;;;;;;6.88;1.90;;;7.50;99.90;;;;;;4975213;28;20031;-76
2023/12/27 06:43:20;;;;;;;6.03;1.42;;;7.40;99.90;;;;;;4975834;28;20085;-76
2023/12/27 06:45:45;;;;;;;5.95;1.52;;;7.40;99.90;;;;;;4975131;28;20427;-76
2023/12/27 06:48:11;;;;;;;2.63;1.40;;;7.40;99.90;;;;;;4975787;28;20041;-76
2023/12/27 06:50:37;;;;;;;3.80;1.85;;;7.40;99.90;;;;;;4959413;28;20062;-76
2023/12/27 06:53:03;;;;;;;3.45;1.45;;;7.40;99.90;;;;;;4958887;28;20406;-76
2023/12/27 06:55:28;;;;;;;3.90;1.90;;;7.40;99.90;;;;;;4976379;28;20459;-75
2023/12/27 06:57:54;;;;;;;3.83;1.50;;;7.40;99.90;;;;;;4958695;28;20035;-76
2023/12/27 07:00:20;;;;;;;3.65;1.40;;;7.40;99.90;;;;;;4975333;28;20125;-76
2023/12/27 07:02:45;;;;;;;3.63;1.75;;;7.40;99.90;;;;;;4958605;28;20027;-76
2023/12/27 07:05:12;;;;;;;3.92;1.58;;;7.40;99.90;;;;;;4959320;28;20037;-76
2023/12/27 07:07:38;;;;;;;4.53;1.77;;;7.40;99.90;;;;;;4976414;28;20445;-76
2023/12/27 07:10:04;;;;;;;3.95;1.63;;;7.30;99.90;;;;;;4975884;28;20105;-75
2023/12/27 07:12:30;;;;;;;3.88;1.80;;;7.40;99.90;;;;;;4959004;28;20480;-76
2023/12/27 07:14:57;;;;;;;4.47;2.38;;;7.30;99.90;;;;;;4958360;28;20468;-76
2023/12/27 07:17:23;;;;;;;4.35;1.77;;;7.30;99.90;;;;;;4976191;28;20038;-76
2023/12/27 07:19:49;;;;;;;5.68;2.55;;;7.30;99.90;;;;;;4974461;28;20026;-76
2023/12/27 07:22:14;;;;;;;5.50;1.95;;;7.30;99.90;;;;;;4958721;28;20038;-76
2023/12/27 07:24:40;;;;;;;3.50;1.60;;;7.30;99.90;;;;;;4958517;28;20031;-76
2023/12/27 07:27:06;;;;;;;4.70;1.75;;;7.20;99.90;;;;;;4975811;28;20031;-76
2023/12/27 07:29:34;;;;;;;5.20;1.58;;;7.30;99.90;;;;;;4975599;28;20058;-76
2023/12/27 07:32:00;;;;;;;2.35;1.55;;;7.30;99.90;;;;;;4958168;28;20543;-76
2023/12/27 07:34:25;;;;;;;2.40;1.77;;;7.30;99.90;;;;;;4958660;28;20130;-76
2023/12/27 07:36:51;;;;;;;3.05;1.50;;;7.20;99.90;;;;;;4973888;28;20054;-76
2023/12/27 07:39:16;;;;;;;3.47;1.80;;;7.20;99.90;;;;;;4975848;28;20027;-76
2023/12/27 07:41:45;;;;;;;2.55;1.35;;;7.20;99.90;;;;;;4958497;28;20464;-76
2023/12/27 07:44:10;;;;;;;4.50;1.95;;;7.20;99.90;;;;;;4974480;28;20033;-75
2023/12/27 07:46:36;;;;;;;2.95;1.50;;;7.20;99.90;;;;;;4974397;28;20031;-76
2023/12/27 07:49:02;;;;;;;5.95;1.98;;;7.20;99.90;;;;;;4957832;28;20038;-76
2023/12/27 07:51:27;;;;;;;5.65;1.83;;;7.20;99.90;;;;;;4975645;28;20049;-76
2023/12/27 07:53:53;;;;;;;5.10;1.70;;;7.30;99.90;;;;;;4974878;28;20468;-76
2023/12/27 07:56:19;;;;;;;4.65;1.92;;;7.30;99.90;;;;;;4958040;28;20041;-76
2023/12/27 07:58:47;;;;;;;4.65;1.50;;;7.40;99.90;;;;;;4974858;28;20114;-90
2023/12/27 08:01:13;;;;;;;3.53;1.50;;;7.40;99.90;;;;;;4958046;28;20499;-76
2023/12/27 08:03:39;;;;;;;5.03;2.05;;;7.40;99.90;;;;;;4958050;28;20030;-76
2023/12/27 08:06:06;;;;;;;3.38;1.90;;;7.40;99.90;;;;;;4974191;28;20475;-76
2023/12/27 08:08:34;;;;;;;3.83;1.70;;;7.50;99.90;;;;;;4958034;28;20173;-76
2023/12/27 08:11:03;;;;;;;6.38;1.90;;;7.50;99.90;;;;;;4957537;28;20073;-76
2023/12/27 08:13:33;;;;;;;4.53;1.90;;;7.50;99.90;;;;;;4957852;28;20101;-76
2023/12/27 08:15:59;;;;;;;4.28;2.35;;;7.50;99.90;;;;;;4974552;28;20469;-76
2023/12/27 08:18:24;;;;;;;4.80;2.03;;;7.50;99.90;;;;;;4975399;28;20067;-76
2023/12/27 08:20:50;;;;;;;5.07;1.98;;;7.50;99.90;;;;;;4957328;28;20027;-76
2023/12/27 08:23:16;;;;;;;4.45;2.05;;;7.60;99.90;;;;;;4974684;28;20050;-76
2023/12/27 08:25:45;;;;;;;5.28;2.03;;;7.70;99.90;;;;;;4957647;28;20546;-76
2023/12/27 08:28:11;;;;;;;5.28;2.00;;;7.70;99.90;;;;;;4957043;28;20035;-76
2023/12/27 08:30:37;;;;;;;3.72;2.08;;;7.80;99.90;;;;;;4957533;28;20431;-76
2023/12/27 08:33:07;;;;;;;4.57;2.40;;;7.80;99.90;;;;;;4974364;28;20027;-76
2023/12/27 08:35:34;;;;;;;3.42;2.10;;;7.80;99.90;;;;;;4973609;28;20049;-76
2023/12/27 08:37:59;;;;;;;5.00;2.20;;;7.80;99.90;;;;;;4974343;28;20055;-76
2023/12/27 08:40:25;;;;;;;4.18;2.22;;;7.80;99.90;;;;;;4957375;28;20027;-76
2023/12/27 08:42:51;;;;;;;7.28;2.28;;;7.70;99.90;;;;;;4956826;28;20373;-76
2023/12/27 08:45:17;;;;;;;5.32;2.50;;;7.70;99.90;;;;;;4974585;28;20130;-76
2023/12/27 08:47:43;;;;;;;5.25;2.60;;;7.80;99.90;;;;;;4957175;28;20062;-75
2023/12/27 08:50:09;;;;;;;4.80;2.38;;;7.80;99.90;;;;;;4972599;28;20026;-75
2023/12/27 08:52:35;;;;;;;6.20;2.70;;;7.80;99.90;;;;;;4956899;28;20081;-76
2023/12/27 08:55:02;;;;;;;7.70;2.60;;;7.80;99.90;;;;;;4956452;28;20031;-76
2023/12/27 08:57:28;;;;;;;5.25;2.38;;;7.90;99.90;;;;;;4973112;28;20038;-76
2023/12/27 08:59:53;;;;;;;4.70;2.70;;;7.90;99.90;;;;;;4956455;28;20400;-76
2023/12/27 09:02:19;;;;;;;6.00;2.25;;;7.90;99.90;;;;;;4972651;28;20031;-76
2023/12/27 09:04:44;;;;;;;8.43;3.05;;;7.90;99.90;;;;;;4974095;28;20041;-76
2023/12/27 09:07:10;;;;;;;4.85;2.33;;;7.90;99.90;;;;;;4973618;28;20030;-76
2023/12/27 09:09:35;;;;;;;7.38;2.55;;;7.90;99.90;;;;;;4956668;28;20034;-76
2023/12/27 09:12:04;;;;;;;10.70;2.70;;;8.00;99.90;;;;;;4956493;28;20022;-75
2023/12/27 09:14:30;;;;;;;5.15;2.70;;;8.00;99.90;;;;;;4973993;28;20026;-75
2023/12/27 09:16:55;;;;;;;6.63;2.40;;;8.00;99.90;;;;;;4972526;28;20038;-76
2023/12/27 09:19:21;;;;;;;5.93;2.20;;;8.00;99.90;;;;;;4972836;28;20086;-76
2023/12/27 09:21:47;;;;;;;7.93;2.92;;;8.00;99.90;;;;;;4973738;28;20031;-76
2023/12/27 09:24:13;;;;;;;8.23;2.50;;;8.00;99.90;;;;;;4973984;28;20043;-78
2023/12/27 09:26:39;;;;;;;6.95;2.53;;;8.10;99.90;;;;;;4972859;28;20027;-75
2023/12/27 09:29:05;;;;;;;5.28;2.42;;;8.10;99.90;;;;;;4956189;28;20023;-76
2023/12/27 09:31:31;;;;;;;7.20;2.45;;;8.10;99.90;;;;;;4956876;28;20030;-76
2023/12/27 09:33:59;;;;;;;6.18;1.90;;;8.20;99.90;;;;;;4973578;28;20018;-76
2023/12/27 09:36:25;;;;;;;5.43;2.17;;;8.30;99.90;;;;;;4956498;28;20513;-76
2023/12/27 09:38:51;;;;;;;6.90;1.80;;;8.40;99.90;;;;;;4973672;28;20073;-90
2023/12/27 09:41:16;;;;;;;4.30;1.92;;;8.50;99.90;;;;;;4956562;28;20500;-76
2023/12/27 09:43:43;;;;;;;5.28;1.77;;;8.50;99.90;;;;;;4956777;28;20031;-76
2023/12/27 09:46:10;;;;;;;8.48;2.20;;;8.60;99.90;;;;;;4973212;28;20369;-76
2023/12/27 09:48:37;;;;;;;7.88;2.10;;;8.70;99.90;;;;;;4973581;28;20027;-75
2023/12/27 09:51:04;;;;;;;10.10;2.53;;;8.70;99.90;;;;;;4956140;28;20026;-75
2023/12/27 09:53:30;;;;;;;7.63;2.92;;;8.70;99.90;;;;;;4973876;28;20034;-76
2023/12/27 09:55:56;;;;;;;8.57;3.17;;;8.80;99.90;;;;;;4972092;28;20039;-76
2023/12/27 09:58:26;;;;;;;7.65;2.10;;;8.70;99.90;;;;;;4973628;28;20023;-76
2023/12/27 10:00:55;;;;;;;6.40;2.20;;;8.70;99.90;;;;;;4956309;28;20039;-91
2023/12/27 10:03:32;;;;;;;6.60;1.65;;;8.70;99.90;;;;;;4956334;28;20027;-79
2023/12/27 10:06:32;;;;;;;6.25;1.67;;;8.70;99.90;;;;;;4973384;28;20031;-76
2023/12/27 10:08:58;;;;;;;5.70;1.70;;;8.70;99.90;;;;;;4973367;28;20399;-76
2023/12/27 10:11:24;;;;;;;4.22;1.65;;;8.70;99.90;;;;;;4956529;28;20492;-76
2023/12/27 10:13:51;;;;;;;7.57;1.80;;;8.80;99.90;;;;;;4973332;28;20460;-75
2023/12/27 10:16:17;;;;;;;5.35;1.70;;;8.90;99.90;;;;;;4973085;28;20031;-74
2023/12/27 10:18:46;;;;;;;6.53;1.77;;;8.90;99.90;;;;;;4956525;28;20395;-74
2023/12/27 10:21:13;;;;;;;4.57;1.65;;;8.90;99.90;;;;;;4955920;28;20027;-75
2023/12/27 10:23:38;;;;;;;3.30;1.40;;;8.90;99.90;;;;;;4973587;28;20031;-74
2023/12/27 10:26:05;;;;;;;4.63;1.85;;;9.00;99.90;;;;;;4955701;28;20041;-75
2023/12/27 10:28:31;;;;;;;8.10;2.08;;;9.00;99.90;;;;;;4956427;28;20038;-75
2023/12/27 10:30:56;;;;;;;4.90;1.85;;;9.00;99.90;;;;;;4975384;28;20137;-75
2023/12/27 10:33:23;;;;;;;6.75;1.50;;;8.90;99.90;;;;;;4959654;28;20034;-75
2023/12/27 10:35:49;;;;;;;2.60;1.67;;;8.90;99.90;;;;;;4959608;28;20038;-75
2023/12/27 10:38:15;;;;;;;3.35;1.67;;;8.90;99.90;;;;;;4976112;28;20054;-75
2023/12/27 10:40:41;;;;;;;5.40;1.80;;;8.90;99.90;;;;;;4976868;28;20568;-74
2023/12/27 10:43:10;;;;;;;6.38;2.17;;;8.90;99.90;;;;;;4959207;28;20034;-75
2023/12/27 10:45:37;;;;;;;5.35;1.40;;;9.00;99.90;;;;;;4976936;28;20031;-75
2023/12/27 10:48:04;;;;;;;4.75;1.77;;;9.10;99.90;;;;;;4959062;28;20392;-75
2023/12/27 10:50:31;;;;;;;3.13;1.40;;;9.10;99.90;;;;;;4959294;28;20038;-75
2023/12/27 10:53:02;;;;;;;2.85;1.50;;;9.20;99.90;;;;;;4958927;28;20038;-76
2023/12/27 10:55:29;;;;;;;3.25;1.00;;;9.30;99.90;;;;;;4976735;28;20523;-75
2023/12/27 10:57:57;;;;;;;4.57;1.20;;;9.30;99.90;;;;;;4976598;28;20368;-74
2023/12/27 11:00:23;;;;;;;6.55;1.52;;;9.30;99.90;;;;;;4959173;28;20046;-75
2023/12/27 11:02:50;;;;;;;4.65;1.58;;;9.40;99.90;;;;;;4976466;28;20033;-75
2023/12/27 11:05:18;;;;;;;5.63;1.40;;;9.60;99.90;;;;;;4958619;28;20043;-75
2023/12/27 11:07:45;;;;;;;4.00;1.15;;;9.60;99.90;;;;;;4958958;28;20073;-75
2023/12/27 11:10:14;;;;;;;3.10;1.30;;;9.60;99.90;;;;;;4958440;28;20456;-76
2023/12/27 11:12:44;;;;;;;3.47;1.33;;;9.60;99.90;;;;;;4976420;28;20027;-75
2023/12/27 11:15:10;;;;;;;4.88;1.30;;;9.60;99.90;;;;;;4958401;28;20034;-75
2023/12/27 11:17:38;;;;;;;5.90;1.83;;;9.60;99.90;;;;;;4958967;28;20093;-75
2023/12/27 11:20:05;;;;;;;10.63;1.90;;;9.60;99.90;;;;;;4976011;28;20535;-75
2023/12/27 11:22:34;;;;;;;3.78;1.83;;;9.60;99.90;;;;;;4958813;28;20030;-76
2023/12/27 11:25:00;;;;;;;2.80;1.13;;;9.60;99.90;;;;;;4958296;28;20038;-76
2023/12/27 11:27:26;;;;;;;3.75;1.48;;;9.60;99.90;;;;;;4958442;28;20491;-76
2023/12/27 11:29:52;;;;;;;3.20;1.58;;;9.60;99.90;;;;;;4976025;28;20062;-75
2023/12/27 11:32:18;;;;;;;3.13;1.30;;;9.60;99.90;;;;;;4975705;28;20113;-75
2023/12/27 11:34:44;;;;;;;6.88;1.40;;;9.60;99.90;;;;;;4958331;28;20034;-75
2023/12/27 11:37:14;;;;;;;4.18;1.65;;;9.70;99.90;;;;;;4957752;28;20047;-75
2023/12/27 11:39:40;;;;;;;4.38;1.70;;;9.80;99.90;;;;;;4958177;28;20023;-75
2023/12/27 11:42:05;;;;;;;6.10;1.70;;;9.80;99.90;;;;;;4957193;28;20078;-74
2023/12/27 11:44:41;;;;;;;6.60;2.00;;;9.80;99.90;;;;;;4974516;28;20031;-75
2023/12/27 11:47:07;;;;;;;3.05;1.33;;;9.90;99.90;;;;;;4957871;28;20030;-75
2023/12/27 11:49:33;;;;;;;4.65;1.55;;;9.90;99.90;;;;;;4975357;28;20081;-75
2023/12/27 11:52:01;;;;;;;4.15;1.95;;;9.90;99.90;;;;;;4958029;28;20030;-91
2023/12/27 11:54:27;;;;;;;4.45;1.60;;;9.90;99.90;;;;;;4957832;28;20081;-75
2023/12/27 11:56:54;;;;;;;3.67;1.38;;;9.90;99.90;;;;;;4975461;28;20069;-75
2023/12/27 11:59:21;;;;;;;5.20;1.27;;;9.90;99.90;;;;;;4957318;28;20038;-75
2023/12/27 12:01:48;;;;;;;3.30;1.30;;;10.00;99.90;;;;;;4975687;28;20058;-75
2023/12/27 12:04:44;;;;;;;3.97;1.50;;;9.90;99.90;;;;;;4957568;28;20034;-75
2023/12/27 12:07:52;;;;;;;5.68;1.42;;;9.90;99.90;;;;;;4957628;28;20027;-75
2023/12/27 12:10:23;;;;;;;3.50;1.40;;;9.90;99.90;;;;;;4957551;28;20362;-75
2023/12/27 12:12:51;;;;;;;5.70;1.73;;;10.00;99.90;;;;;;4958012;28;20035;-74
2023/12/27 12:15:21;;;;;;;3.92;1.45;;;10.10;99.90;;;;;;4957306;28;20031;-75
2023/12/27 12:17:48;;;;;;;4.40;1.52;;;10.00;99.90;;;;;;4975125;28;20077;-75
2023/12/27 12:20:13;;;;;;;4.47;1.38;;;10.10;99.90;;;;;;4957226;28;20089;-75
2023/12/27 12:22:41;;;;;;;4.47;1.10;;;10.10;99.90;;;;;;4974872;28;20400;-76
2023/12/27 12:25:08;;;;;;;3.95;1.35;;;10.10;99.90;;;;;;4957204;28;20034;-75
2023/12/27 12:27:33;;;;;;;5.25;1.60;;;10.20;99.90;;;;;;4974669;28;20102;-75
2023/12/27 12:29:59;;;;;;;6.30;1.60;;;10.20;99.90;;;;;;4957630;28;20062;-75
2023/12/27 12:32:25;;;;;;;8.50;1.40;;;10.20;99.90;;;;;;4973278;28;20407;-75
2023/12/27 12:34:51;;;;;;;2.63;1.38;;;10.20;99.90;;;;;;4973517;28;20039;-75
2023/12/27 12:37:17;;;;;;;7.00;1.52;;;10.30;99.90;;;;;;4973005;28;20097;-75
2023/12/27 12:39:44;;;;;;;7.97;1.67;;;10.30;99.90;;;;;;4973750;28;20031;-75
2023/12/27 12:42:10;;;;;;;3.33;1.08;;;10.20;99.90;;;;;;4956911;28;20034;-76
2023/12/27 12:44:38;;;;;;;3.30;1.42;;;10.20;99.90;;;;;;4957413;28;20400;-75
2023/12/27 12:47:04;;;;;;;1.48;1.10;;;10.20;99.90;;;;;;4956766;28;20562;-76
2023/12/27 12:49:30;;;;;;;4.20;1.20;;;10.20;99.90;;;;;;4974513;28;20051;-75
2023/12/27 12:52:06;;;;;;;3.50;1.33;;;10.30;99.90;;;;;;4972980;28;20062;-76